地図

経路データ

SID SEASON NUMBER BASIN SUBBASIN NAME ISO_TIME NATURE LAT LON WMO_WIND WMO_PRES WMO_AGENCY TRACK_TYPE DIST2LAND LANDFALL IFLAG USA_AGENCY USA_ATCF_ID USA_LAT USA_LON USA_RECORD USA_STATUS USA_WIND USA_PRES USA_SSHS USA_R34_NE USA_R34_SE USA_R34_SW USA_R34_NW USA_R50_NE USA_R50_SE USA_R50_SW USA_R50_NW USA_R64_NE USA_R64_SE USA_R64_SW USA_R64_NW USA_POCI USA_ROCI USA_RMW USA_EYE TOKYO_LAT TOKYO_LON TOKYO_GRADE TOKYO_WIND TOKYO_PRES TOKYO_R50_DIR TOKYO_R50_LONG TOKYO_R50_SHORT TOKYO_R30_DIR TOKYO_R30_LONG TOKYO_R30_SHORT TOKYO_LAND CMA_LAT CMA_LON CMA_CAT CMA_WIND CMA_PRES HKO_LAT HKO_LON HKO_CAT HKO_WIND HKO_PRES NEWDELHI_LAT NEWDELHI_LON NEWDELHI_GRADE NEWDELHI_WIND NEWDELHI_PRES NEWDELHI_CI NEWDELHI_DP NEWDELHI_POCI REUNION_LAT REUNION_LON REUNION_TYPE REUNION_WIND REUNION_PRES REUNION_TNUM REUNION_CI REUNION_RMW REUNION_R34_NE REUNION_R34_SE REUNION_R34_SW REUNION_R34_NW REUNION_R50_NE REUNION_R50_SE REUNION_R50_SW REUNION_R50_NW REUNION_R64_NE REUNION_R64_SE REUNION_R64_SW REUNION_R64_NW BOM_LAT BOM_LON BOM_TYPE BOM_WIND BOM_PRES BOM_TNUM BOM_CI BOM_RMW BOM_R34_NE BOM_R34_SE BOM_R34_SW BOM_R34_NW BOM_R50_NE BOM_R50_SE BOM_R50_SW BOM_R50_NW BOM_R64_NE BOM_R64_SE BOM_R64_SW BOM_R64_NW BOM_ROCI BOM_POCI BOM_EYE BOM_POS_METHOD BOM_PRES_METHOD NADI_LAT NADI_LON NADI_CAT NADI_WIND NADI_PRES WELLINGTON_LAT WELLINGTON_LON WELLINGTON_WIND WELLINGTON_PRES DS824_LAT DS824_LON DS824_STAGE DS824_WIND DS824_PRES TD9636_LAT TD9636_LON TD9636_STAGE TD9636_WIND TD9636_PRES TD9635_LAT TD9635_LON TD9635_WIND TD9635_PRES TD9635_ROCI NEUMANN_LAT NEUMANN_LON NEUMANN_CLASS NEUMANN_WIND NEUMANN_PRES MLC_LAT MLC_LON MLC_CLASS MLC_WIND MLC_PRES USA_GUST BOM_GUST BOM_GUST_PER REUNION_GUST REUNION_GUST_PER USA_SEAHGT USA_SEARAD_NE USA_SEARAD_SE USA_SEARAD_SW USA_SEARAD_NW STORM_SPEED STORM_DIR
1950251N16319 1950 73 NA NA FOX 1950-09-08 06:00:00 TS 15.5000 -41.0000 40 hurdat_atl main 1686 1657 O_____________ hurdat_atl AL061950 15.5000 -41.0000 TS 40 0 7 268
1950251N16319 1950 73 NA NA FOX 1950-09-08 09:00:00 TS 15.4901 -41.3800 main 1657 1629 P_____________ AL061950 15.4901 -41.3800 TS 40 0 8 270
1950251N16319 1950 73 NA NA FOX 1950-09-08 12:00:00 TS 15.5000 -41.8000 40 hurdat_atl main 1629 1594 O_____________ hurdat_atl AL061950 15.5000 -41.8000 TS 40 0 9 273
1950251N16319 1950 73 NA NA FOX 1950-09-08 15:00:00 TS 15.5425 -42.2850 main 1594 1570 P_____________ AL061950 15.5425 -42.2850 TS 40 0 10 276
1950251N16319 1950 73 NA NA FOX 1950-09-08 18:00:00 TS 15.6000 -42.8000 40 hurdat_atl main 1570 1538 O_____________ hurdat_atl AL061950 15.6000 -42.8000 TS 40 0 10 276
1950251N16319 1950 73 NA NA FOX 1950-09-08 21:00:00 TS 15.6425 -43.3151 main 1538 1517 P_____________ AL061950 15.6425 -43.3151 TS 42 0 10 276
1950251N16319 1950 73 NA NA FOX 1950-09-09 00:00:00 TS 15.7000 -43.8000 45 hurdat_atl main 1517 1500 O_____________ hurdat_atl AL061950 15.7000 -43.8000 TS 45 0 9 280
1950251N16319 1950 73 NA NA FOX 1950-09-09 03:00:00 TS 15.7924 -44.2225 main 1500 1483 P_____________ AL061950 15.7924 -44.2225 TS 45 0 8 285
1950251N16319 1950 73 NA NA FOX 1950-09-09 06:00:00 TS 15.9000 -44.6000 45 hurdat_atl main 1483 1470 O_____________ hurdat_atl AL061950 15.9000 -44.6000 TS 45 0 7 286
1950251N16319 1950 73 NA NA FOX 1950-09-09 09:00:00 TS 15.9924 -44.9576 main 1466 1457 P_____________ AL061950 15.9924 -44.9576 TS 47 0 7 287
1950251N16319 1950 73 NA NA FOX 1950-09-09 12:00:00 TS 16.1000 -45.3000 50 hurdat_atl main 1457 1449 O_____________ hurdat_atl AL061950 16.1000 -45.3000 TS 50 0 7 291
1950251N16319 1950 73 NA NA FOX 1950-09-09 15:00:00 TS 16.2424 -45.6500 main 1443 1442 P_____________ AL061950 16.2424 -45.6500 TS 50 0 7 294
1950251N16319 1950 73 NA NA FOX 1950-09-09 18:00:00 TS 16.4000 -46.0000 50 hurdat_atl main 1446 1440 O_____________ hurdat_atl AL061950 16.4000 -46.0000 TS 50 0 7 294
1950251N16319 1950 73 NA NA FOX 1950-09-09 21:00:00 TS 16.5425 -46.3576 main 1434 1434 P_____________ AL061950 16.5425 -46.3576 TS 50 0 7 294
1950251N16319 1950 73 NA NA FOX 1950-09-10 00:00:00 TS 16.7000 -46.7000 50 hurdat_atl main 1439 1434 O_____________ hurdat_atl AL061950 16.7000 -46.7000 TS 50 0 7 300
1950251N16319 1950 73 NA NA FOX 1950-09-10 03:00:00 TS 16.8924 -47.0001 main 1444 1439 P_____________ AL061950 16.8924 -47.0001 TS 52 0 7 305
1950251N16319 1950 73 NA NA FOX 1950-09-10 06:00:00 TS 17.1000 -47.3000 55 hurdat_atl main 1450 1446 O_____________ hurdat_atl AL061950 17.1000 -47.3000 TS 55 0 7 304
1950251N16319 1950 73 NA NA FOX 1950-09-10 09:00:00 TS 17.2999 -47.6351 main 1458 1454 P_____________ AL061950 17.2999 -47.6351 TS 55 0 8 301
1950251N16319 1950 73 NA NA FOX 1950-09-10 12:00:00 TS 17.5000 -48.0000 55 hurdat_atl main 1462 1458 O_____________ hurdat_atl AL061950 17.5000 -48.0000 TS 55 0 8 299
1950251N16319 1950 73 NA NA FOX 1950-09-10 15:00:00 TS 17.7000 -48.3926 main 1464 1459 P_____________ AL061950 17.7000 -48.3926 TS 55 0 9 298
1950251N16319 1950 73 NA NA FOX 1950-09-10 18:00:00 TS 17.9000 -48.8000 55 995 hurdat_atl main 1466 1461 O_____________ hurdat_atl AL061950 17.9000 -48.8000 TS 55 995 0 9 297
1950251N16319 1950 73 NA NA FOX 1950-09-10 21:00:00 TS 18.1000 -49.2150 main 1470 1466 P_____________ AL061950 18.1000 -49.2150 TS 57 0 9 298
1950251N16319 1950 73 NA NA FOX 1950-09-11 00:00:00 TS 18.3000 -49.6000 60 hurdat_atl main 1475 1471 O_____________ hurdat_atl AL061950 18.3000 -49.6000 TS 60 0 8 301
1950251N16319 1950 73 NA NA FOX 1950-09-11 03:00:00 TS 18.4999 -49.9226 main 1478 1466 P_____________ AL061950 18.4999 -49.9226 TS 62 0 7 305
1950251N16319 1950 73 NA NA FOX 1950-09-11 06:00:00 TS 18.7000 -50.2000 65 hurdat_atl main 1466 1455 O_____________ hurdat_atl AL061950 18.7000 -50.2000 HU 65 1 6 308
1950251N16319 1950 73 NA NA FOX 1950-09-11 09:00:00 TS 18.8924 -50.4576 main 1454 1451 P_____________ AL061950 18.8924 -50.4576 HU 67 1 6 310
1950251N16319 1950 73 NA NA FOX 1950-09-11 12:00:00 TS 19.1000 -50.7000 70 hurdat_atl main 1451 1443 O_____________ hurdat_atl AL061950 19.1000 -50.7000 HU 70 1 6 314
1950251N16319 1950 73 NA NA FOX 1950-09-11 15:00:00 TS 19.3349 -50.9426 main 1449 1441 P_____________ AL061950 19.3349 -50.9426 HU 72 1 7 317
1950251N16319 1950 73 NA NA FOX 1950-09-11 18:00:00 TS 19.6000 -51.2000 75 986 hurdat_atl main 1448 1440 O_____________ hurdat_atl AL061950 19.6000 -51.2000 HU 75 986 1 7 317
1950251N16319 1950 73 NA NA FOX 1950-09-11 21:00:00 TS 19.8774 -51.4852 main 1447 1440 P_____________ AL061950 19.8774 -51.4852 HU 75 1 8 317
1950251N16319 1950 73 NA NA FOX 1950-09-12 00:00:00 TS 20.2000 -51.8000 75 hurdat_atl main 1449 1434 O_____________ hurdat_atl AL061950 20.2000 -51.8000 HU 75 1 9 320
1950251N16319 1950 73 NA NA FOX 1950-09-12 03:00:00 TS 20.5924 -52.1276 main 1435 1401 P_____________ AL061950 20.5924 -52.1276 HU 77 1 10 321
1950251N16319 1950 73 NA NA FOX 1950-09-12 06:00:00 TS 21.0000 -52.5000 80 hurdat_atl main 1401 1366 O_____________ hurdat_atl AL061950 21.0000 -52.5000 HU 80 1 11 315
1950251N16319 1950 73 NA NA FOX 1950-09-12 09:00:00 TS 21.3650 -52.9425 main 1369 1326 P_____________ AL061950 21.3650 -52.9425 HU 80 1 11 310
1950251N16319 1950 73 NA NA FOX 1950-09-12 12:00:00 TS 21.7000 -53.4000 80 hurdat_atl main 1326 1294 O_____________ hurdat_atl AL061950 21.7000 -53.4000 HU 80 1 10 309
1950251N16319 1950 73 NA NA FOX 1950-09-12 15:00:00 TS 22.0223 -53.8077 main 1294 1265 P_____________ AL061950 22.0223 -53.8077 HU 82 1 10 309
1950251N16319 1950 73 NA NA FOX 1950-09-12 18:00:00 TS 22.3000 -54.2000 85 977 hurdat_atl main 1265 1233 O_____________ hurdat_atl AL061950 22.3000 -54.2000 HU 85 977 2 9 305
1950251N16319 1950 73 NA NA FOX 1950-09-12 21:00:00 TS 22.5299 -54.6001 main 1233 1203 P_____________ AL061950 22.5299 -54.6001 HU 87 2 8 298
1950251N16319 1950 73 NA NA FOX 1950-09-13 00:00:00 TS 22.7000 -55.0000 90 hurdat_atl main 1203 1169 O_____________ hurdat_atl AL061950 22.7000 -55.0000 HU 90 2 8 291
1950251N16319 1950 73 NA NA FOX 1950-09-13 03:00:00 TS 22.8150 -55.4077 main 1169 1136 P_____________ AL061950 22.8150 -55.4077 HU 92 2 8 285
1950251N16319 1950 73 NA NA FOX 1950-09-13 06:00:00 TS 22.9000 -55.8000 95 hurdat_atl main 1136 1113 O_____________ hurdat_atl AL061950 22.9000 -55.8000 HU 95 2 7 285
1950251N16319 1950 73 NA NA FOX 1950-09-13 09:00:00 TS 22.9999 -56.1576 main 1104 1081 P_____________ AL061950 22.9999 -56.1576 HU 95 2 7 287
1950251N16319 1950 73 NA NA FOX 1950-09-13 12:00:00 TS 23.1000 -56.5000 95 hurdat_atl main 1081 1060 O_____________ hurdat_atl AL061950 23.1000 -56.5000 HU 95 2 7 287
1950251N16319 1950 73 NA NA FOX 1950-09-13 15:00:00 TS 23.1925 -56.8576 main 1051 1030 P_____________ AL061950 23.1925 -56.8576 HU 97 3 7 287
1950251N16319 1950 73 NA NA FOX 1950-09-13 18:00:00 TS 23.3000 -57.2000 100 hurdat_atl main 1030 1009 O_____________ hurdat_atl AL061950 23.3000 -57.2000 HU 100 3 7 293
1950251N16319 1950 73 NA NA FOX 1950-09-13 21:00:00 TS 23.4499 -57.5075 main 1009 996 P_____________ AL061950 23.4499 -57.5075 HU 102 3 6 299
1950251N16319 1950 73 NA NA FOX 1950-09-14 00:00:00 TS 23.6000 -57.8000 105 hurdat_atl main 996 977 O_____________ hurdat_atl AL061950 23.6000 -57.8000 HU 105 3 6 294
1950251N16319 1950 73 NA NA FOX 1950-09-14 03:00:00 TS 23.7000 -58.1076 main 977 960 P_____________ AL061950 23.7000 -58.1076 HU 107 3 6 290
1950251N16319 1950 73 NA NA FOX 1950-09-14 06:00:00 TS 23.8000 -58.4000 110 hurdat_atl main 960 950 O_____________ hurdat_atl AL061950 23.8000 -58.4000 HU 110 3 5 292
1950251N16319 1950 73 NA NA FOX 1950-09-14 09:00:00 TS 23.9049 -58.6578 main 943 942 P_____________ AL061950 23.9049 -58.6578 HU 112 3 5 303
1950251N16319 1950 73 NA NA FOX 1950-09-14 12:00:00 TS 24.1000 -58.9000 115 hurdat_atl main 942 941 O_____________ hurdat_atl AL061950 24.1000 -58.9000 HU 115 4 7 320
1950251N16319 1950 73 NA NA FOX 1950-09-14 15:00:00 TS 24.4475 -59.1649 main 942 942 P_____________ AL061950 24.4475 -59.1649 HU 117 4 9 330
1950251N16319 1950 73 NA NA FOX 1950-09-14 18:00:00 TS 24.9000 -59.4000 120 hurdat_atl main 968 968 O_____________ hurdat_atl AL061950 24.9000 -59.4000 HU 120 4 10 338
1950251N16319 1950 73 NA NA FOX 1950-09-14 21:00:00 TS 25.3775 -59.5800 main 997 997 P_____________ AL061950 25.3775 -59.5800 HU 120 4 10 345
1950251N16319 1950 73 NA NA FOX 1950-09-15 00:00:00 TS 25.9000 -59.7000 120 hurdat_atl main 1034 1034 O_____________ hurdat_atl AL061950 25.9000 -59.7000 HU 120 4 11 350
1950251N16319 1950 73 NA NA FOX 1950-09-15 03:00:00 TS 26.4350 -59.7800 main 1074 1074 P_____________ AL061950 26.4350 -59.7800 HU 120 4 11 355
1950251N16319 1950 73 NA NA FOX 1950-09-15 06:00:00 TS 27.0000 -59.8000 120 hurdat_atl main 1129 1129 O_____________ hurdat_atl AL061950 27.0000 -59.8000 HU 120 4 11 0
1950251N16319 1950 73 NA NA FOX 1950-09-15 09:00:00 TS 27.5325 -59.7870 main 1177 1177 P_____________ AL061950 27.5325 -59.7870 HU 120 4 12 4
1950251N16319 1950 73 NA NA FOX 1950-09-15 12:00:00 TS 28.2000 -59.7000 120 946 hurdat_atl main 1249 1249 O_____________ hurdat_atl AL061950 28.2000 -59.7000 HU 120 946 4 16 7
1950251N16319 1950 73 NA NA FOX 1950-09-15 15:00:00 TS 29.1098 -59.5733 main 1341 1341 P_____________ AL061950 29.1098 -59.5733 HU 117 4 20 10
1950251N16319 1950 73 NA NA FOX 1950-09-15 18:00:00 TS 30.2000 -59.3000 115 hurdat_atl main 1464 1464 O_____________ hurdat_atl AL061950 30.2000 -59.3000 HU 115 4 24 15
1950251N16319 1950 73 NA NA FOX 1950-09-15 21:00:00 TS 31.3921 -58.8470 main 1462 1367 P_____________ AL061950 31.3921 -58.8470 HU 112 3 26 21
1950251N16319 1950 73 NA NA FOX 1950-09-16 00:00:00 TS 32.6000 -58.2000 110 hurdat_atl main 1361 1291 O_____________ hurdat_atl AL061950 32.6000 -58.2000 HU 110 3 26 28
1950251N16319 1950 73 NA NA FOX 1950-09-16 03:00:00 TS 33.6947 -57.4165 main 1286 1239 P_____________ AL061950 33.6947 -57.4165 HU 107 3 25 34
1950251N16319 1950 73 NA NA FOX 1950-09-16 06:00:00 TS 34.7000 -56.5000 105 hurdat_atl main 1231 1160 O_____________ hurdat_atl AL061950 34.7000 -56.5000 HU 105 3 25 38
1950251N16319 1950 73 NA NA FOX 1950-09-16 09:00:00 TS 35.6591 -55.5436 main 1157 1109 P_____________ AL061950 35.6591 -55.5436 HU 102 3 24 42
1950251N16319 1950 73 NA NA FOX 1950-09-16 12:00:00 TS 36.5000 -54.5000 100 hurdat_atl main 1114 1056 O_____________ hurdat_atl AL061950 36.5000 -54.5000 HU 100 3 22 48
1950251N16319 1950 73 NA NA FOX 1950-09-16 15:00:00 TS 37.1534 -53.4695 main 1045 981 P_____________ AL061950 37.1534 -53.4695 HU 95 2 22 55
1950251N16319 1950 73 NA NA FOX 1950-09-16 18:00:00 TS 37.8000 -52.2000 90 hurdat_atl main 982 925 O_____________ hurdat_atl AL061950 37.8000 -52.2000 HU 90 2 27 59
1950251N16319 1950 73 NA NA FOX 1950-09-16 21:00:00 TS 38.5195 -50.5387 main 927 879 P_____________ AL061950 38.5195 -50.5387 HU 87 2 34 60
1950251N16319 1950 73 NA NA FOX 1950-09-17 00:00:00 TS 39.5000 -48.5000 85 hurdat_atl main 875 847 O_____________ hurdat_atl AL061950 39.5000 -48.5000 HU 85 2 42 56
1950251N16319 1950 73 NA NA FOX 1950-09-17 03:00:00 TS 40.9080 -46.0312 main 855 850 P_____________ AL061950 40.9080 -46.0312 HU 77 1 48 52
1950251N16319 1950 73 NA NA FOX 1950-09-17 06:00:00 TS 42.5000 -43.5000 70 hurdat_atl main 887 887 O_____________ hurdat_atl AL061950 42.5000 -43.5000 HU 70 1 46 48
1950251N16319 1950 73 NA NA FOX 1950-09-17 09:00:00 TS 44.0312 -41.3750 main 947 947 P_____________ AL061950 44.0312 -41.3750 HU 62 0 42 44
1950251N16319 1950 73 NA NA FOX 1950-09-17 12:00:00 ET 45.5000 -39.5000 55 hurdat_atl main 1021 O_____________ hurdat_atl AL061950 45.5000 -39.5000 EX 55 -4 39 42

IBTrACS Databaseについて

本データベースは、米国NOAAが公開する1842年以降の世界の熱帯低気圧のベストトラックデータアーカイブInternational Best Track Archive for Climate Stewardship (IBTrACS)を、ウェブで閲覧しやすい形式に変換したものです。

最終更新日:2021-10-25